Time;durP1;ratioP1;P1;durP2;ratioP2;P2;SDS_P1;SDS_P2;PMS_P1;PMS_P2;Temp;Humidity;BMP_temperature;BMP_pressure;BME280_temperature;BME280_humidity;BME280_pressure;Samples;Min_cycle;Max_cycle;Signal;HPM_P1;HPM_P2
2022/05/31 00:02:01;;;;;;;1.67;1.45;;;;;;;;;;5141910;27;20279;-59
2022/05/31 00:04:29;;;;;;;1.50;1.08;;;;;;;;;;5140957;27;20323;-60
2022/05/31 00:06:57;;;;;;;2.05;1.30;;;;;;;;;;5141446;27;20249;-60
2022/05/31 00:09:25;;;;;;;2.17;1.27;;;;;;;;;;5141214;27;20203;-60
2022/05/31 00:11:52;;;;;;;2.25;1.20;;;;;;;;;;5141271;27;20202;-60
2022/05/31 00:14:20;;;;;;;2.10;1.13;;;;;;;;;;5142172;27;20538;-60
2022/05/31 00:16:48;;;;;;;1.55;1.20;;;;;;;;;;5141279;27;20202;-60
2022/05/31 00:19:18;;;;;;;4.30;1.40;;;;;;;;;;5141090;27;20216;-59
2022/05/31 00:21:47;;;;;;;2.88;1.40;;;;;;;;;;5141699;27;20202;-60
2022/05/31 00:24:16;;;;;;;3.50;1.27;;;;;;;;;;5140719;27;20209;-60
2022/05/31 00:26:44;;;;;;;3.75;1.40;;;;;;;;;;5142013;27;20478;-60
2022/05/31 00:29:11;;;;;;;2.67;1.38;;;;;;;;;;5141442;27;20203;-60
2022/05/31 00:31:40;;;;;;;4.55;1.30;;;;;;;;;;5141306;27;20213;-60
2022/05/31 00:34:08;;;;;;;4.45;1.13;;;;;;;;;;5141353;27;20247;-60
2022/05/31 00:36:39;;;;;;;2.63;1.20;;;;;;;;;;5140643;27;20226;-60
2022/05/31 00:39:06;;;;;;;4.93;1.30;;;;;;;;;;5140916;27;20292;-60
2022/05/31 00:41:34;;;;;;;3.88;1.17;;;;;;;;;;5141036;27;20267;-60
2022/05/31 00:44:03;;;;;;;1.80;1.38;;;;;;;;;;5141223;27;20203;-60
2022/05/31 00:46:32;;;;;;;1.13;1.00;;;;;;;;;;5140619;27;20199;-61
2022/05/31 00:49:01;;;;;;;1.15;1.00;;;;;;;;;;5141166;27;20202;-60
2022/05/31 00:51:36;;;;;;;2.63;1.30;;;;;;;;;;5141004;27;20206;-60
2022/05/31 00:54:07;;;;;;;1.90;1.10;;;;;;;;;;5140890;27;20230;-60
2022/05/31 00:56:35;;;;;;;2.20;1.10;;;;;;;;;;5140066;27;20252;-60
2022/05/31 00:59:04;;;;;;;1.52;1.20;;;;;;;;;;5140882;27;20213;-60
2022/05/31 01:01:32;;;;;;;1.20;1.10;;;;;;;;;;5140585;27;20194;-60
2022/05/31 01:04:01;;;;;;;1.77;1.10;;;;;;;;;;5140616;27;20210;-60
2022/05/31 01:06:28;;;;;;;1.75;1.00;;;;;;;;;;5140709;27;20206;-60
2022/05/31 01:08:57;;;;;;;1.00;1.00;;;;;;;;;;5140604;27;20214;-60
2022/05/31 01:11:27;;;;;;;1.20;1.10;;;;;;;;;;5140226;27;20492;-60
2022/05/31 01:13:55;;;;;;;1.10;0.88;;;;;;;;;;5140090;27;20267;-60
2022/05/31 01:16:24;;;;;;;1.20;1.10;;;;;;;;;;5140218;27;20226;-60
2022/05/31 01:18:52;;;;;;;1.42;1.23;;;;;;;;;;5140542;27;20699;-60
2022/05/31 01:21:20;;;;;;;1.30;1.20;;;;;;;;;;5140085;27;20202;-60
2022/05/31 01:23:54;;;;;;;0.93;0.90;;;;;;;;;;5140160;27;20207;-60
2022/05/31 01:26:28;;;;;;;1.58;1.10;;;;;;;;;;5139685;27;20198;-60
2022/05/31 01:29:00;;;;;;;1.52;1.13;;;;;;;;;;5140413;27;20202;-60
2022/05/31 01:31:29;;;;;;;1.80;0.95;;;;;;;;;;5139748;27;20202;-60
2022/05/31 01:34:00;;;;;;;1.15;1.05;;;;;;;;;;5140057;27;20198;-60
2022/05/31 01:36:32;;;;;;;1.08;1.08;;;;;;;;;;5140064;27;20234;-60
2022/05/31 01:39:02;;;;;;;1.23;1.10;;;;;;;;;;5139963;27;20206;-60
2022/05/31 01:41:32;;;;;;;0.93;0.93;;;;;;;;;;5140379;27;20212;-60
2022/05/31 01:44:02;;;;;;;1.30;1.20;;;;;;;;;;5139906;27;20202;-60
2022/05/31 01:46:31;;;;;;;1.10;1.00;;;;;;;;;;5139527;27;20194;-60
2022/05/31 01:48:59;;;;;;;1.25;1.15;;;;;;;;;;5139325;27;20570;-60
2022/05/31 01:51:27;;;;;;;1.15;0.90;;;;;;;;;;5140094;27;20221;-60
2022/05/31 01:53:57;;;;;;;1.27;1.00;;;;;;;;;;5140780;27;20203;-60
2022/05/31 01:56:24;;;;;;;1.00;0.90;;;;;;;;;;5139636;27;20294;-60
2022/05/31 01:58:54;;;;;;;0.95;0.85;;;;;;;;;;5139552;27;20208;-60
2022/05/31 02:01:22;;;;;;;1.25;1.02;;;;;;;;;;5139276;27;20267;-60
2022/05/31 02:03:49;;;;;;;1.10;1.00;;;;;;;;;;5139897;27;20569;-60
2022/05/31 02:06:27;;;;;;;1.20;1.10;;;;;;;;;;5139179;27;20811;-60
2022/05/31 02:08:54;;;;;;;1.20;1.10;;;;;;;;;;5138377;27;20217;-60
2022/05/31 02:11:24;;;;;;;1.05;1.00;;;;;;;;;;5139177;27;20316;-60
2022/05/31 02:13:51;;;;;;;1.17;1.08;;;;;;;;;;5139488;27;20202;-60
2022/05/31 02:16:19;;;;;;;1.25;1.00;;;;;;;;;;5139555;27;20222;-60
2022/05/31 02:21:35;;;;;;;1.00;1.00;;;;;;;;;;5139529;27;20193;-60
2022/05/31 02:24:04;;;;;;;1.08;0.98;;;;;;;;;;5139163;27;20254;-60
2022/05/31 02:26:33;;;;;;;0.90;0.90;;;;;;;;;;5138384;27;20199;-60
2022/05/31 02:29:00;;;;;;;1.23;1.13;;;;;;;;;;5138909;27;20203;-60
2022/05/31 02:31:28;;;;;;;0.90;0.90;;;;;;;;;;5138892;27;20263;-60
2022/05/31 02:33:56;;;;;;;1.70;1.02;;;;;;;;;;5138862;27;20214;-60
2022/05/31 02:36:24;;;;;;;0.90;0.90;;;;;;;;;;5139105;27;20611;-60
2022/05/31 02:38:52;;;;;;;1.08;1.05;;;;;;;;;;5138478;27;20202;-60
2022/05/31 02:41:19;;;;;;;0.98;0.98;;;;;;;;;;5138400;27;20229;-60
2022/05/31 02:43:48;;;;;;;1.08;1.08;;;;;;;;;;5138028;27;20194;-60
2022/05/31 02:46:16;;;;;;;0.90;0.90;;;;;;;;;;5138324;27;20206;-60
2022/05/31 02:48:43;;;;;;;0.90;0.90;;;;;;;;;;5138421;27;20213;-60
2022/05/31 02:51:10;;;;;;;1.83;1.10;;;;;;;;;;5138461;27;20213;-60
2022/05/31 02:53:38;;;;;;;0.90;0.90;;;;;;;;;;5138300;27;20202;-60
2022/05/31 02:56:06;;;;;;;1.00;1.00;;;;;;;;;;5137923;27;20670;-60
2022/05/31 02:58:34;;;;;;;1.13;0.80;;;;;;;;;;5138620;27;20248;-60
2022/05/31 03:01:02;;;;;;;1.10;1.00;;;;;;;;;;5138775;27;20203;-60
2022/05/31 03:03:30;;;;;;;0.90;0.90;;;;;;;;;;5138728;27;20489;-60
2022/05/31 03:05:57;;;;;;;0.98;0.98;;;;;;;;;;5138209;27;20573;-61
2022/05/31 03:08:24;;;;;;;0.85;0.85;;;;;;;;;;5138521;27;20214;-60
2022/05/31 03:10:54;;;;;;;1.05;1.02;;;;;;;;;;5137951;27;20214;-60
2022/05/31 03:13:24;;;;;;;0.82;0.82;;;;;;;;;;5138436;27;20206;-60
2022/05/31 03:15:52;;;;;;;1.10;1.10;;;;;;;;;;5137721;27;20225;-60
2022/05/31 03:18:24;;;;;;;1.00;1.00;;;;;;;;;;5138231;27;20203;-60
2022/05/31 03:20:53;;;;;;;1.10;1.00;;;;;;;;;;5137419;27;20198;-60
2022/05/31 03:23:22;;;;;;;1.08;1.00;;;;;;;;;;5137879;27;20206;-61
2022/05/31 03:25:50;;;;;;;1.10;1.10;;;;;;;;;;5137601;27;20205;-60
2022/05/31 03:28:18;;;;;;;1.13;1.02;;;;;;;;;;5138424;28;20215;-60
2022/05/31 03:30:45;;;;;;;1.00;0.90;;;;;;;;;;5137402;28;20572;-60
2022/05/31 03:33:13;;;;;;;1.35;1.10;;;;;;;;;;5138443;28;20216;-60
2022/05/31 03:35:42;;;;;;;1.05;0.90;;;;;;;;;;5137894;28;20222;-60
2022/05/31 03:38:10;;;;;;;1.00;1.00;;;;;;;;;;5136948;28;20202;-61
2022/05/31 03:43:22;;;;;;;0.90;0.90;;;;;;;;;;5137363;28;20193;-60
2022/05/31 03:45:51;;;;;;;0.90;0.90;;;;;;;;;;5137408;28;20198;-61
2022/05/31 03:48:19;;;;;;;0.98;0.98;;;;;;;;;;5137425;28;20202;-60
2022/05/31 03:50:58;;;;;;;1.00;1.00;;;;;;;;;;5138001;28;20202;-60
2022/05/31 03:53:25;;;;;;;0.95;0.95;;;;;;;;;;5137170;28;20767;-60
2022/05/31 03:55:52;;;;;;;1.20;0.95;;;;;;;;;;5137462;28;20683;-60
2022/05/31 03:58:20;;;;;;;1.00;1.00;;;;;;;;;;5137299;28;20237;-60
2022/05/31 04:00:48;;;;;;;1.17;1.08;;;;;;;;;;5136334;28;20259;-60
2022/05/31 04:03:16;;;;;;;1.52;1.08;;;;;;;;;;5137008;28;20202;-60
2022/05/31 04:05:43;;;;;;;0.95;0.95;;;;;;;;;;5137409;28;20214;-60
2022/05/31 04:08:12;;;;;;;0.93;0.90;;;;;;;;;;5137086;28;20206;-60
2022/05/31 04:10:41;;;;;;;0.90;0.90;;;;;;;;;;5137041;28;20213;-60
2022/05/31 04:13:08;;;;;;;1.30;1.08;;;;;;;;;;5136606;28;20194;-61
2022/05/31 04:15:36;;;;;;;1.20;1.10;;;;;;;;;;5137203;28;20203;-60
2022/05/31 04:18:04;;;;;;;1.25;1.17;;;;;;;;;;5136578;28;20205;-60
2022/05/31 04:20:32;;;;;;;1.20;1.10;;;;;;;;;;5136916;28;20198;-60
2022/05/31 04:25:42;;;;;;;1.13;1.10;;;;;;;;;;5135907;28;20229;-60
2022/05/31 04:28:09;;;;;;;1.10;1.00;;;;;;;;;;5137116;28;20590;-60
2022/05/31 04:30:37;;;;;;;0.93;0.93;;;;;;;;;;5136369;27;20202;-60
2022/05/31 04:33:05;;;;;;;0.93;0.93;;;;;;;;;;5140484;27;20216;-60
2022/05/31 04:35:32;;;;;;;1.10;1.10;;;;;;;;;;5140075;27;20202;-60
2022/05/31 04:38:00;;;;;;;1.27;1.13;;;;;;;;;;5140066;27;20194;-60
2022/05/31 04:40:27;;;;;;;1.00;1.00;;;;;;;;;;5140395;27;20216;-60
2022/05/31 04:42:56;;;;;;;0.88;0.80;;;;;;;;;;5139366;27;20206;-60
2022/05/31 04:45:24;;;;;;;1.33;1.10;;;;;;;;;;5139035;27;20206;-60
2022/05/31 04:47:51;;;;;;;1.15;1.00;;;;;;;;;;5138825;27;20226;-60
2022/05/31 04:50:18;;;;;;;1.00;1.00;;;;;;;;;;5139223;27;20201;-60
2022/05/31 04:52:46;;;;;;;1.25;1.15;;;;;;;;;;5138998;27;20229;-60
2022/05/31 04:55:13;;;;;;;1.10;1.10;;;;;;;;;;5138963;27;20658;-60
2022/05/31 04:57:41;;;;;;;0.90;0.90;;;;;;;;;;5138611;27;20242;-60
2022/05/31 05:00:10;;;;;;;1.00;1.00;;;;;;;;;;5138472;27;20202;-60
2022/05/31 05:02:38;;;;;;;1.20;1.10;;;;;;;;;;5138481;27;20202;-60
2022/05/31 05:05:07;;;;;;;0.95;0.95;;;;;;;;;;5137007;27;20206;-61
2022/05/31 05:07:34;;;;;;;1.17;1.10;;;;;;;;;;5137940;27;20205;-60
2022/05/31 05:10:01;;;;;;;1.50;1.20;;;;;;;;;;5137178;27;20203;-60
2022/05/31 05:12:29;;;;;;;1.10;1.10;;;;;;;;;;5136995;27;20747;-60
2022/05/31 05:14:56;;;;;;;1.13;1.08;;;;;;;;;;5138198;27;20198;-60
2022/05/31 05:17:25;;;;;;;1.20;1.10;;;;;;;;;;5137517;27;20234;-60
2022/05/31 05:19:54;;;;;;;1.27;1.17;;;;;;;;;;5137952;27;20202;-60
2022/05/31 05:22:21;;;;;;;0.93;0.93;;;;;;;;;;5137328;27;20573;-59
2022/05/31 05:24:49;;;;;;;1.00;1.00;;;;;;;;;;5136448;27;20213;-60
2022/05/31 05:27:16;;;;;;;1.00;1.00;;;;;;;;;;5136836;27;20198;-60
2022/05/31 05:32:30;;;;;;;1.15;1.05;;;;;;;;;;5137645;27;20197;-60
2022/05/31 05:34:58;;;;;;;1.10;1.10;;;;;;;;;;5137124;27;20576;-60
2022/05/31 05:37:25;;;;;;;1.20;1.10;;;;;;;;;;5137423;27;20256;-60
2022/05/31 05:39:53;;;;;;;1.00;1.00;;;;;;;;;;5136378;27;20202;-61
2022/05/31 05:42:20;;;;;;;0.98;0.98;;;;;;;;;;5134990;27;20210;-60
2022/05/31 05:44:47;;;;;;;1.20;1.10;;;;;;;;;;5135708;27;20199;-61
2022/05/31 05:47:15;;;;;;;1.23;1.13;;;;;;;;;;5136075;27;20191;-60
2022/05/31 05:49:44;;;;;;;1.02;0.95;;;;;;;;;;5136685;27;20197;-60
2022/05/31 05:52:13;;;;;;;1.70;1.00;;;;;;;;;;5137324;27;20202;-60
2022/05/31 05:54:41;;;;;;;1.20;1.10;;;;;;;;;;5136456;27;20203;-60
2022/05/31 05:57:08;;;;;;;1.13;1.02;;;;;;;;;;5135665;27;20265;-60
2022/05/31 05:59:35;;;;;;;1.20;1.10;;;;;;;;;;5136540;27;20492;-60
2022/05/31 06:02:07;;;;;;;1.27;1.15;;;;;;;;;;5135832;27;20201;-60
2022/05/31 06:04:37;;;;;;;1.20;1.10;;;;;;;;;;5133716;27;20202;-60
2022/05/31 06:07:17;;;;;;;1.70;1.02;;;;;;;;;;5135817;27;20191;-60
2022/05/31 06:09:48;;;;;;;1.10;1.00;;;;;;;;;;5137208;27;20592;-60
2022/05/31 06:12:18;;;;;;;1.10;0.90;;;;;;;;;;5135508;27;20193;-60
2022/05/31 06:14:46;;;;;;;0.90;0.80;;;;;;;;;;5135983;27;20779;-60
2022/05/31 06:17:15;;;;;;;1.52;0.95;;;;;;;;;;5133789;27;20222;-60
2022/05/31 06:19:42;;;;;;;2.13;1.08;;;;;;;;;;5136369;27;20194;-60
2022/05/31 06:22:14;;;;;;;1.30;1.20;;;;;;;;;;5136228;27;20589;-60
2022/05/31 06:24:42;;;;;;;2.70;1.20;;;;;;;;;;5135584;27;20194;-60
2022/05/31 06:27:09;;;;;;;1.20;1.10;;;;;;;;;;5136326;27;20225;-60
2022/05/31 06:29:36;;;;;;;2.60;1.23;;;;;;;;;;5136060;27;20202;-60
2022/05/31 06:32:04;;;;;;;2.55;1.20;;;;;;;;;;5135053;27;20194;-60
2022/05/31 06:34:32;;;;;;;1.23;1.13;;;;;;;;;;5135361;27;20190;-60
2022/05/31 06:37:04;;;;;;;0.80;0.80;;;;;;;;;;5136173;27;20241;-60
2022/05/31 06:39:35;;;;;;;3.20;1.15;;;;;;;;;;5136524;27;20202;-60
2022/05/31 06:42:04;;;;;;;1.63;1.30;;;;;;;;;;5135417;27;20574;-60
2022/05/31 06:44:32;;;;;;;2.42;1.23;;;;;;;;;;5133214;27;20198;-60
2022/05/31 06:47:00;;;;;;;2.85;1.00;;;;;;;;;;5134251;27;20195;-59
2022/05/31 06:49:27;;;;;;;3.63;1.50;;;;;;;;;;5131693;27;20221;-60
2022/05/31 06:57:26;;;;;;;2.38;1.10;;;;;;;;;;5132370;27;20233;-60
2022/05/31 06:59:53;;;;;;;1.52;1.13;;;;;;;;;;5132267;27;20479;-60
2022/05/31 07:02:21;;;;;;;1.73;1.10;;;;;;;;;;5134025;27;20202;-60
2022/05/31 07:04:48;;;;;;;0.95;0.95;;;;;;;;;;5133757;27;20224;-60
2022/05/31 07:07:16;;;;;;;2.10;1.10;;;;;;;;;;5132529;27;20194;-60
2022/05/31 07:09:45;;;;;;;1.38;0.90;;;;;;;;;;5133380;27;20194;-60
2022/05/31 07:12:12;;;;;;;1.95;1.10;;;;;;;;;;5134901;27;20501;-60
2022/05/31 07:14:40;;;;;;;2.05;1.20;;;;;;;;;;5133384;27;20601;-60
2022/05/31 07:17:08;;;;;;;1.15;1.00;;;;;;;;;;5134138;27;20506;-60
2022/05/31 07:19:35;;;;;;;1.27;1.08;;;;;;;;;;5134143;27;20606;-60
2022/05/31 07:22:03;;;;;;;1.95;1.20;;;;;;;;;;5133914;27;20611;-60
2022/05/31 07:24:31;;;;;;;2.33;1.00;;;;;;;;;;5133678;27;20213;-60
2022/05/31 07:27:00;;;;;;;0.85;0.80;;;;;;;;;;5133441;27;20220;-60
2022/05/31 07:29:28;;;;;;;1.42;1.00;;;;;;;;;;5134211;28;20623;-60
2022/05/31 07:31:55;;;;;;;1.48;1.13;;;;;;;;;;5132765;28;20217;-60
2022/05/31 07:34:23;;;;;;;1.13;1.02;;;;;;;;;;5133128;28;20213;-60
2022/05/31 07:36:51;;;;;;;1.10;1.00;;;;;;;;;;5132541;28;20302;-60
2022/05/31 07:39:18;;;;;;;1.15;1.05;;;;;;;;;;5133577;28;20719;-60
2022/05/31 07:41:46;;;;;;;2.15;1.20;;;;;;;;;;5133215;28;20263;-60
2022/05/31 07:44:16;;;;;;;3.15;1.30;;;;;;;;;;5132922;28;20202;-60
2022/05/31 07:46:43;;;;;;;1.30;1.20;;;;;;;;;;5133234;28;20288;-60
2022/05/31 07:49:11;;;;;;;1.23;1.13;;;;;;;;;;5132460;28;20194;-60
2022/05/31 07:51:38;;;;;;;0.85;0.85;;;;;;;;;;5131710;28;20218;-60
2022/05/31 07:54:05;;;;;;;1.33;0.80;;;;;;;;;;5131348;28;20225;-60
2022/05/31 07:56:33;;;;;;;1.33;1.08;;;;;;;;;;5132705;28;20234;-60
2022/05/31 07:59:01;;;;;;;1.58;0.82;;;;;;;;;;5132625;28;20569;-60
2022/05/31 08:01:29;;;;;;;1.50;1.02;;;;;;;;;;5132459;28;20229;-60
2022/05/31 08:03:57;;;;;;;1.35;0.88;;;;;;;;;;5133667;28;20210;-60
2022/05/31 08:06:26;;;;;;;1.00;1.00;;;;;;;;;;5134888;27;20230;-60
2022/05/31 08:08:53;;;;;;;0.95;0.90;;;;;;;;;;5137619;27;20208;-60
2022/05/31 08:11:27;;;;;;;1.00;0.90;;;;;;;;;;5137712;27;20212;-60
2022/05/31 08:13:54;;;;;;;1.95;0.80;;;;;;;;;;5138108;27;20225;-60
2022/05/31 08:16:22;;;;;;;1.77;1.10;;;;;;;;;;5139324;27;20210;-60
2022/05/31 08:18:52;;;;;;;0.98;0.80;;;;;;;;;;5138366;27;20257;-60
2022/05/31 08:21:21;;;;;;;1.20;1.10;;;;;;;;;;5137645;27;20210;-60
2022/05/31 08:23:48;;;;;;;1.10;1.00;;;;;;;;;;5138101;27;20732;-60
2022/05/31 08:26:16;;;;;;;0.98;0.88;;;;;;;;;;5137722;27;20202;-60
2022/05/31 08:28:43;;;;;;;1.05;0.98;;;;;;;;;;5137723;27;20744;-60
2022/05/31 08:31:12;;;;;;;1.13;1.00;;;;;;;;;;5137715;27;20225;-60
2022/05/31 08:33:39;;;;;;;1.17;1.08;;;;;;;;;;5137925;27;20202;-60
2022/05/31 08:36:08;;;;;;;1.40;0.88;;;;;;;;;;5137083;27;20198;-60
2022/05/31 08:38:36;;;;;;;1.13;1.02;;;;;;;;;;5138212;27;20225;-61
2022/05/31 08:41:09;;;;;;;0.80;0.80;;;;;;;;;;5138037;27;20205;-61
2022/05/31 08:43:44;;;;;;;1.10;1.00;;;;;;;;;;5138918;27;20202;-60
2022/05/31 08:46:15;;;;;;;1.55;1.08;;;;;;;;;;5137520;27;20288;-60
2022/05/31 08:48:46;;;;;;;0.98;0.98;;;;;;;;;;5136845;27;20204;-60
2022/05/31 08:57:01;;;;;;;1.20;1.10;;;;;;;;;;5110846;27;20779;-60
2022/05/31 08:59:32;;;;;;;1.35;1.05;;;;;;;;;;5137607;27;20202;-61
2022/05/31 09:02:02;;;;;;;1.10;1.00;;;;;;;;;;5134853;27;20221;-60
2022/05/31 09:04:31;;;;;;;1.10;1.00;;;;;;;;;;5135669;27;20206;-60
2022/05/31 09:07:05;;;;;;;2.05;1.05;;;;;;;;;;5136927;27;20198;-60
2022/05/31 09:09:38;;;;;;;1.20;1.10;;;;;;;;;;5136413;27;20212;-60
2022/05/31 09:12:11;;;;;;;1.58;0.95;;;;;;;;;;5134816;27;20194;-60
2022/05/31 09:14:43;;;;;;;1.27;1.17;;;;;;;;;;5136101;27;20285;-60
2022/05/31 09:17:14;;;;;;;1.00;1.00;;;;;;;;;;5135057;27;20202;-60
2022/05/31 09:19:44;;;;;;;1.25;1.15;;;;;;;;;;5134649;27;20569;-60
2022/05/31 09:22:13;;;;;;;1.15;1.08;;;;;;;;;;5133141;27;20216;-60
2022/05/31 09:24:42;;;;;;;1.20;1.10;;;;;;;;;;5133895;27;20198;-60
2022/05/31 09:27:13;;;;;;;1.20;1.10;;;;;;;;;;5133621;27;20237;-60
2022/05/31 09:29:58;;;;;;;1.50;0.93;;;;;;;;;;5134066;27;20242;-60
2022/05/31 09:32:32;;;;;;;1.40;1.30;;;;;;;;;;5133530;27;20198;-60
2022/05/31 09:35:10;;;;;;;1.27;1.17;;;;;;;;;;5133846;27;20202;-60
2022/05/31 09:37:49;;;;;;;1.60;1.08;;;;;;;;;;5134785;27;20257;-60
2022/05/31 09:40:23;;;;;;;2.58;1.20;;;;;;;;;;5134682;27;20202;-60
2022/05/31 09:43:01;;;;;;;1.30;1.20;;;;;;;;;;5134364;27;20623;-60
2022/05/31 09:45:30;;;;;;;1.83;1.33;;;;;;;;;;5133565;27;20284;-60
2022/05/31 09:48:00;;;;;;;1.48;1.10;;;;;;;;;;5134046;27;20190;-60
2022/05/31 09:50:29;;;;;;;1.77;1.42;;;;;;;;;;5134415;27;20213;-60
2022/05/31 09:52:58;;;;;;;1.27;1.17;;;;;;;;;;5133422;27;20377;-60
2022/05/31 09:58:21;;;;;;;2.25;1.20;;;;;;;;;;5133340;27;20229;-60
2022/05/31 10:00:59;;;;;;;1.77;1.30;;;;;;;;;;5134242;27;20290;-60
2022/05/31 10:03:34;;;;;;;1.20;1.10;;;;;;;;;;5132728;27;20198;-60
2022/05/31 10:06:06;;;;;;;1.92;1.38;;;;;;;;;;5133465;27;20219;-60
2022/05/31 10:08:35;;;;;;;1.88;1.30;;;;;;;;;;5133343;27;20205;-60
2022/05/31 10:11:05;;;;;;;1.15;1.05;;;;;;;;;;5132986;27;20194;-60
2022/05/31 10:13:37;;;;;;;1.55;1.33;;;;;;;;;;5134113;27;20202;-60
2022/05/31 10:16:27;;;;;;;3.05;1.30;;;;;;;;;;5132925;27;20194;-60
2022/05/31 10:18:55;;;;;;;1.15;1.05;;;;;;;;;;5127460;27;20712;-60
2022/05/31 10:21:32;;;;;;;1.30;1.10;;;;;;;;;;5132060;27;20300;-60
2022/05/31 10:24:10;;;;;;;2.47;1.50;;;;;;;;;;5132892;27;20202;-60
2022/05/31 10:26:40;;;;;;;1.77;1.25;;;;;;;;;;5131741;27;20201;-60
2022/05/31 10:29:09;;;;;;;1.60;1.30;;;;;;;;;;5131687;27;20202;-60
2022/05/31 10:31:38;;;;;;;2.63;1.30;;;;;;;;;;5130869;27;20194;-60
2022/05/31 10:34:07;;;;;;;3.08;1.33;;;;;;;;;;5133812;27;20206;-60
2022/05/31 10:36:48;;;;;;;2.38;1.30;;;;;;;;;;5132498;27;20507;-60
2022/05/31 10:39:20;;;;;;;2.75;1.50;;;;;;;;;;5132306;27;20222;-60
2022/05/31 10:41:48;;;;;;;2.60;1.25;;;;;;;;;;5132758;27;20202;-60
2022/05/31 10:44:17;;;;;;;1.40;1.30;;;;;;;;;;5132929;27;20340;-60
2022/05/31 10:46:46;;;;;;;2.65;1.20;;;;;;;;;;5132898;27;20397;-61
2022/05/31 10:49:16;;;;;;;1.42;1.30;;;;;;;;;;5130984;27;20198;-60
2022/05/31 10:51:50;;;;;;;1.40;1.25;;;;;;;;;;5130873;27;20213;-60
2022/05/31 10:54:30;;;;;;;1.40;1.30;;;;;;;;;;5133338;27;20457;-60
2022/05/31 10:57:02;;;;;;;3.20;1.55;;;;;;;;;;5131991;27;20269;-61
2022/05/31 10:59:35;;;;;;;1.27;1.10;;;;;;;;;;5132247;27;20236;-60
2022/05/31 11:02:12;;;;;;;2.25;1.35;;;;;;;;;;5132139;27;20310;-60
2022/05/31 11:04:47;;;;;;;1.35;1.25;;;;;;;;;;5131743;27;20581;-60
2022/05/31 11:07:19;;;;;;;1.90;1.33;;;;;;;;;;5131564;27;20213;-61
2022/05/31 11:12:48;;;;;;;2.03;1.40;;;;;;;;;;5131035;27;20342;-60
2022/05/31 11:15:25;;;;;;;2.28;1.20;;;;;;;;;;5133722;27;20197;-60
2022/05/31 11:18:08;;;;;;;1.63;1.30;;;;;;;;;;5133749;27;20803;-61
2022/05/31 11:20:39;;;;;;;1.95;1.17;;;;;;;;;;5133000;27;20693;-60
2022/05/31 11:23:12;;;;;;;2.38;1.30;;;;;;;;;;5133885;27;20202;-61
2022/05/31 11:25:55;;;;;;;2.95;1.38;;;;;;;;;;5132086;27;20198;-60
2022/05/31 11:28:31;;;;;;;232.82;10.60;;;;;;;;;;5132704;27;20579;-60
2022/05/31 11:31:08;;;;;;;3.20;1.45;;;;;;;;;;5132536;28;20209;-60
2022/05/31 11:33:44;;;;;;;2.55;1.40;;;;;;;;;;5131876;28;20577;-60
2022/05/31 11:36:18;;;;;;;2.17;1.33;;;;;;;;;;5129627;28;20266;-60
2022/05/31 11:38:51;;;;;;;2.33;1.45;;;;;;;;;;5130004;28;20647;-60
2022/05/31 11:41:24;;;;;;;1.90;1.35;;;;;;;;;;5132665;27;20646;-60
2022/05/31 11:44:09;;;;;;;2.10;1.20;;;;;;;;;;5136816;27;20202;-60
2022/05/31 11:46:40;;;;;;;1.67;1.40;;;;;;;;;;5118725;27;20600;-60
2022/05/31 11:49:09;;;;;;;1.35;1.25;;;;;;;;;;5135306;27;20530;-60
2022/05/31 11:51:54;;;;;;;1.20;1.10;;;;;;;;;;5136846;27;20193;-60
2022/05/31 11:55:25;;;;;;;2.58;1.23;;;;;;;;;;5135720;27;20202;-61
2022/05/31 11:57:40;;;;;;;1.88;1.30;;;;;;;;;;5125029;27;20661;-60
2022/05/31 12:00:11;;;;;;;1.80;1.30;;;;;;;;;;5134294;27;20507;-60
2022/05/31 12:02:45;;;;;;;1.45;1.35;;;;;;;;;;5133725;27;20320;-60
2022/05/31 12:05:16;;;;;;;1.85;1.20;;;;;;;;;;5134176;27;20297;-61
2022/05/31 12:07:47;;;;;;;1.90;1.27;;;;;;;;;;5135799;27;20202;-60
2022/05/31 12:10:18;;;;;;;1.45;1.20;;;;;;;;;;5135424;27;20270;-59
2022/05/31 12:12:47;;;;;;;2.53;1.38;;;;;;;;;;5134464;27;20217;-60
2022/05/31 12:15:18;;;;;;;1.38;1.27;;;;;;;;;;5134191;27;20202;-59
2022/05/31 12:17:49;;;;;;;1.88;1.30;;;;;;;;;;5120261;27;20313;-60
2022/05/31 12:20:22;;;;;;;1.40;1.30;;;;;;;;;;5114150;28;20330;-60
2022/05/31 12:22:53;;;;;;;1.33;1.20;;;;;;;;;;5114142;28;20234;-61
2022/05/31 12:25:24;;;;;;;1.50;1.38;;;;;;;;;;5114982;28;20214;-61
2022/05/31 12:27:56;;;;;;;2.15;1.27;;;;;;;;;;5128736;27;20198;-60
2022/05/31 12:30:27;;;;;;;1.40;1.30;;;;;;;;;;5136436;27;20198;-60
2022/05/31 12:32:55;;;;;;;1.50;1.38;;;;;;;;;;5134619;27;20206;-60
2022/05/31 12:35:40;;;;;;;1.30;1.20;;;;;;;;;;5133810;27;20225;-60
2022/05/31 12:38:10;;;;;;;2.22;1.20;;;;;;;;;;5124387;27;20498;-60
2022/05/31 12:40:42;;;;;;;1.63;1.30;;;;;;;;;;5133898;27;20309;-59
2022/05/31 12:43:11;;;;;;;2.10;1.23;;;;;;;;;;5133349;27;20202;-60
2022/05/31 12:45:40;;;;;;;2.13;1.30;;;;;;;;;;5133608;27;20210;-60
2022/05/31 12:48:23;;;;;;;2.65;1.40;;;;;;;;;;5132696;27;20207;-60
2022/05/31 12:51:20;;;;;;;1.85;1.38;;;;;;;;;;5133736;27;20677;-60
2022/05/31 12:54:05;;;;;;;1.77;1.13;;;;;;;;;;5132851;27;20656;-60
2022/05/31 12:56:39;;;;;;;2.17;1.25;;;;;;;;;;5131905;27;20625;-59
2022/05/31 12:59:09;;;;;;;2.25;1.52;;;;;;;;;;5133225;27;20252;-60
2022/05/31 13:01:58;;;;;;;5.18;1.70;;;;;;;;;;5132876;27;20198;-60
2022/05/31 13:04:28;;;;;;;6.43;1.58;;;;;;;;;;5133735;27;20213;-60
2022/05/31 13:07:16;;;;;;;2.70;1.10;;;;;;;;;;5132074;27;20217;-60
2022/05/31 13:09:46;;;;;;;3.92;1.55;;;;;;;;;;5128141;27;20198;-60
2022/05/31 13:20:49;;;;;;;2.13;1.25;;;;;;;;;;5133361;27;20205;-61
2022/05/31 13:23:20;;;;;;;2.10;1.27;;;;;;;;;;5134096;27;20573;-60
2022/05/31 13:25:51;;;;;;;4.78;1.70;;;;;;;;;;5132440;27;20251;-59
2022/05/31 13:28:27;;;;;;;1.75;1.42;;;;;;;;;;5132724;27;20218;-60
2022/05/31 13:30:59;;;;;;;5.15;1.30;;;;;;;;;;5132236;27;20210;-60
2022/05/31 13:33:27;;;;;;;2.35;1.40;;;;;;;;;;5133464;27;20228;-60
2022/05/31 13:35:59;;;;;;;1.92;1.20;;;;;;;;;;5132368;27;20266;-60
2022/05/31 13:38:29;;;;;;;2.63;1.30;;;;;;;;;;5132380;27;20507;-61
2022/05/31 13:40:57;;;;;;;2.13;1.30;;;;;;;;;;5132688;27;20198;-60
2022/05/31 13:43:26;;;;;;;1.90;1.50;;;;;;;;;;5131727;27;20346;-61
2022/05/31 13:45:54;;;;;;;2.17;1.30;;;;;;;;;;5131040;27;20194;-60
2022/05/31 13:48:23;;;;;;;2.28;1.40;;;;;;;;;;5133837;27;20597;-61
2022/05/31 13:50:55;;;;;;;3.17;1.20;;;;;;;;;;5132426;27;20213;-60
2022/05/31 13:53:23;;;;;;;2.05;1.30;;;;;;;;;;5133045;27;20496;-60
2022/05/31 13:55:56;;;;;;;2.33;1.20;;;;;;;;;;5131192;27;20589;-60
2022/05/31 13:58:29;;;;;;;1.58;1.48;;;;;;;;;;5130357;27;20332;-61
2022/05/31 14:00:56;;;;;;;2.67;1.38;;;;;;;;;;5133722;27;20209;-60
2022/05/31 14:03:27;;;;;;;2.38;1.30;;;;;;;;;;5129803;27;20217;-61
2022/05/31 14:05:56;;;;;;;1.58;1.15;;;;;;;;;;5131723;27;20216;-60
2022/05/31 14:08:25;;;;;;;2.55;1.25;;;;;;;;;;5131108;27;20210;-60
2022/05/31 14:10:52;;;;;;;2.63;1.20;;;;;;;;;;5131090;27;20198;-60
2022/05/31 14:13:23;;;;;;;1.40;1.30;;;;;;;;;;5132618;27;20221;-60
2022/05/31 14:15:51;;;;;;;1.10;1.00;;;;;;;;;;5132210;27;20198;-60
2022/05/31 14:18:19;;;;;;;1.50;1.38;;;;;;;;;;5132268;27;20538;-61
2022/05/31 14:20:50;;;;;;;1.67;1.13;;;;;;;;;;5133261;27;20482;-60
2022/05/31 14:23:20;;;;;;;1.40;1.30;;;;;;;;;;5132324;27;20244;-60
2022/05/31 14:25:51;;;;;;;1.20;1.10;;;;;;;;;;5133738;27;20668;-60
2022/05/31 14:28:19;;;;;;;1.50;1.40;;;;;;;;;;5132966;27;20216;-60
2022/05/31 14:30:50;;;;;;;1.30;1.20;;;;;;;;;;5132816;27;20201;-61
2022/05/31 14:33:20;;;;;;;1.48;1.30;;;;;;;;;;5132811;27;20262;-60
2022/05/31 14:35:51;;;;;;;1.40;1.30;;;;;;;;;;5134428;27;20205;-60
2022/05/31 14:38:20;;;;;;;1.35;1.10;;;;;;;;;;5132785;27;20202;-60
2022/05/31 14:40:53;;;;;;;1.33;1.23;;;;;;;;;;5132105;27;20233;-61
2022/05/31 14:43:29;;;;;;;1.55;1.30;;;;;;;;;;5131518;27;20202;-60
2022/05/31 14:45:56;;;;;;;1.30;1.10;;;;;;;;;;5132645;27;20233;-60
2022/05/31 14:48:44;;;;;;;1.50;1.10;;;;;;;;;;5130939;27;20245;-60
2022/05/31 14:51:14;;;;;;;1.40;1.30;;;;;;;;;;5131230;27;20209;-60
2022/05/31 14:53:43;;;;;;;1.63;1.10;;;;;;;;;;5131097;27;20194;-60
2022/05/31 14:56:20;;;;;;;1.35;1.20;;;;;;;;;;5131442;27;20194;-60
2022/05/31 14:58:47;;;;;;;1.85;1.27;;;;;;;;;;5130607;27;20365;-60
2022/05/31 15:01:17;;;;;;;1.50;1.33;;;;;;;;;;5113986;27;20790;-60
2022/05/31 15:03:47;;;;;;;1.58;1.23;;;;;;;;;;5112907;28;20203;-61
2022/05/31 15:06:27;;;;;;;1.45;1.35;;;;;;;;;;5110733;28;20198;-60
2022/05/31 15:09:06;;;;;;;1.38;1.27;;;;;;;;;;5112321;28;20218;-61
2022/05/31 15:19:49;;;;;;;1.17;1.08;;;;;;;;;;5109860;28;20229;-60
2022/05/31 15:22:19;;;;;;;1.50;1.10;;;;;;;;;;5110581;28;20202;-60
2022/05/31 15:24:48;;;;;;;1.63;1.30;;;;;;;;;;5110513;28;20604;-60
2022/05/31 15:27:19;;;;;;;0.90;0.90;;;;;;;;;;5110998;28;20203;-61
2022/05/31 15:29:46;;;;;;;1.20;1.20;;;;;;;;;;5109887;28;20578;-60
2022/05/31 15:32:14;;;;;;;1.30;1.20;;;;;;;;;;5108875;28;20218;-60
2022/05/31 15:34:41;;;;;;;1.45;1.10;;;;;;;;;;5110957;28;20214;-60
2022/05/31 15:37:09;;;;;;;1.35;1.25;;;;;;;;;;5111051;28;20229;-60
2022/05/31 15:39:38;;;;;;;1.10;1.10;;;;;;;;;;5110143;28;20246;-61
2022/05/31 15:42:07;;;;;;;1.35;1.23;;;;;;;;;;5108949;28;20480;-60
2022/05/31 15:44:36;;;;;;;1.38;1.27;;;;;;;;;;5110358;28;20512;-60
2022/05/31 15:47:03;;;;;;;1.20;1.10;;;;;;;;;;5110033;28;20210;-60